createdAt,value
2022-09-15T00:00:38.292Z,1.38
2022-09-15T00:05:39.837Z,1.40
2022-09-15T00:10:54.067Z,2.03
2022-09-15T00:15:55.620Z,1.83
2022-09-15T00:20:57.339Z,1.65
2022-09-15T00:25:58.873Z,1.88
2022-09-15T00:31:00.508Z,1.90
2022-09-15T00:36:05.099Z,1.95
2022-09-15T00:41:08.757Z,2.10
2022-09-15T00:46:10.732Z,1.80
2022-09-15T00:51:16.753Z,2.03
2022-09-15T00:56:19.741Z,2.28
2022-09-15T01:01:25.203Z,2.00
2022-09-15T01:06:36.305Z,2.10
2022-09-15T01:11:39.788Z,2.17
2022-09-15T01:16:57.679Z,2.03
2022-09-15T01:22:32.431Z,2.42
2022-09-15T01:28:11.223Z,2.90
2022-09-15T01:33:38.991Z,2.72
2022-09-15T01:39:00.875Z,3.42
2022-09-15T01:44:21.617Z,3.17
2022-09-15T01:49:28.053Z,3.17
2022-09-15T01:54:35.979Z,3.42
2022-09-15T01:59:37.523Z,3.35
2022-09-15T02:04:48.535Z,2.63
2022-09-15T02:10:05.468Z,2.83
2022-09-15T02:15:12.186Z,2.88
2022-09-15T02:21:13.833Z,2.53
2022-09-15T02:26:19.580Z,2.20
2022-09-15T02:31:24.993Z,2.10
2022-09-15T02:36:29.180Z,2.40
2022-09-15T02:41:31.098Z,2.00
2022-09-15T02:46:34.046Z,2.28
2022-09-15T02:51:35.955Z,1.95
2022-09-15T02:56:37.879Z,1.70
2022-09-15T03:01:40.853Z,1.75
2022-09-15T03:06:43.572Z,1.98
2022-09-15T03:11:45.148Z,2.00
2022-09-15T03:16:47.510Z,1.70
2022-09-15T03:21:49.083Z,1.83
2022-09-15T03:26:50.590Z,1.60
2022-09-15T03:31:52.183Z,1.60
2022-09-15T03:36:53.743Z,1.88
2022-09-15T03:41:55.615Z,1.52
2022-09-15T03:46:58.212Z,1.63
2022-09-15T03:51:59.763Z,1.63
2022-09-15T03:57:01.500Z,1.50
2022-09-15T04:02:03.177Z,1.50
2022-09-15T04:07:09.955Z,1.30
2022-09-15T04:12:11.615Z,1.70
2022-09-15T04:17:13.149Z,1.33
2022-09-15T04:22:17.853Z,1.40
2022-09-15T04:27:19.724Z,1.20
2022-09-15T04:32:21.964Z,2.10
2022-09-15T04:37:23.667Z,2.35
2022-09-15T04:42:33.990Z,2.50
2022-09-15T04:47:35.590Z,2.40
2022-09-15T04:52:37.147Z,2.90
2022-09-15T04:57:38.671Z,2.97
2022-09-15T05:02:40.383Z,3.58
2022-09-15T05:07:41.878Z,19.50
2022-09-15T05:12:43.393Z,5.85
2022-09-15T05:17:44.914Z,4.72
2022-09-15T05:22:46.470Z,3.80
2022-09-15T05:27:47.991Z,4.22
2022-09-15T05:32:49.558Z,3.53
2022-09-15T05:37:51.111Z,3.50
2022-09-15T05:42:52.839Z,4.40
2022-09-15T05:47:54.341Z,3.45
2022-09-15T05:52:55.942Z,3.67
2022-09-15T05:57:57.502Z,3.70
2022-09-15T06:02:59.123Z,6.10
2022-09-15T06:08:00.891Z,5.97
2022-09-15T06:13:02.399Z,4.20
2022-09-15T06:18:03.994Z,4.93
2022-09-15T06:23:05.524Z,3.70
2022-09-15T06:28:10.033Z,4.68
2022-09-15T06:33:11.541Z,4.22
2022-09-15T06:38:13.402Z,3.63
2022-09-15T06:43:14.955Z,3.83
2022-09-15T06:48:24.573Z,3.33
2022-09-15T06:53:34.834Z,5.07
2022-09-15T06:58:38.642Z,3.80
2022-09-15T07:03:42.792Z,3.70
2022-09-15T07:08:45.363Z,3.50
2022-09-15T07:13:49.097Z,3.85
2022-09-15T07:18:51.004Z,2.92
2022-09-15T07:23:52.813Z,2.83
2022-09-15T07:28:57.087Z,2.67
2022-09-15T07:33:59.949Z,3.10
2022-09-15T07:39:03.586Z,2.70
2022-09-15T07:44:06.918Z,3.05
2022-09-15T07:49:10.514Z,2.67
2022-09-15T07:54:12.281Z,3.40
2022-09-15T07:59:15.033Z,4.75
2022-09-15T08:04:16.607Z,6.28
2022-09-15T08:09:18.308Z,7.43
2022-09-15T08:14:19.884Z,8.05
2022-09-15T08:19:21.404Z,8.93
2022-09-15T08:24:23.591Z,10.68
2022-09-15T08:29:25.228Z,10.32
2022-09-15T08:34:27.623Z,12.10
2022-09-15T08:39:29.188Z,9.48
2022-09-15T08:44:41.263Z,10.07
2022-09-15T08:50:05.121Z,10.25
2022-09-15T08:55:43.729Z,9.57
2022-09-15T09:00:52.921Z,9.85
2022-09-15T09:06:06.010Z,13.60
2022-09-15T09:11:12.951Z,16.45
2022-09-15T09:16:43.658Z,15.65
2022-09-15T09:21:51.833Z,17.05
2022-09-15T09:26:57.120Z,16.42
2022-09-15T09:31:59.955Z,15.30
2022-09-15T09:37:11.119Z,14.93
2022-09-15T09:42:18.493Z,14.85
2022-09-15T09:47:20.775Z,17.60
2022-09-15T09:52:39.166Z,9.73
2022-09-15T09:57:41.008Z,9.23
2022-09-15T10:02:48.717Z,10.50
2022-09-15T10:07:50.406Z,9.63
2022-09-15T10:12:56.507Z,12.38
2022-09-15T10:17:58.242Z,12.95
2022-09-15T10:23:14.828Z,10.70
2022-09-15T10:28:25.748Z,12.07
2022-09-15T10:33:50.315Z,12.82
2022-09-15T10:39:35.504Z,13.93
2022-09-15T10:44:52.875Z,14.63
2022-09-15T10:50:13.189Z,13.68
2022-09-15T10:55:48.960Z,13.52
2022-09-15T11:01:22.498Z,13.05
2022-09-15T11:06:41.934Z,11.45
2022-09-15T11:12:18.120Z,12.48
2022-09-15T11:17:31.350Z,11.65
2022-09-15T11:22:47.291Z,10.55
2022-09-15T11:28:00.019Z,9.48
2022-09-15T11:33:14.778Z,7.97
2022-09-15T11:38:31.198Z,6.72
2022-09-15T11:43:50.729Z,4.72
2022-09-15T11:49:02.038Z,4.20
2022-09-15T11:54:15.896Z,4.72
2022-09-15T11:59:39.610Z,3.67
2022-09-15T12:05:03.282Z,4.07
2022-09-15T12:10:13.771Z,4.20
2022-09-15T12:15:18.969Z,4.60
2022-09-15T12:20:51.112Z,4.78
2022-09-15T12:26:05.248Z,4.88
2022-09-15T12:31:38.703Z,5.25
2022-09-15T12:36:42.594Z,5.57
2022-09-15T12:41:58.250Z,5.97
2022-09-15T12:47:01.750Z,4.75
2022-09-15T12:52:07.336Z,4.43
2022-09-15T12:57:31.927Z,4.80
2022-09-15T13:02:48.492Z,4.55
2022-09-15T13:07:57.587Z,3.95
2022-09-15T13:13:51.828Z,4.03
2022-09-15T13:19:15.410Z,3.15
2022-09-15T13:24:40.422Z,3.95
2022-09-15T13:30:07.867Z,3.67
2022-09-15T13:35:24.960Z,3.40
2022-09-15T13:40:53.579Z,3.00
2022-09-15T13:46:27.473Z,2.78
2022-09-15T13:51:31.470Z,2.72
2022-09-15T13:56:39.862Z,2.53
2022-09-15T14:01:46.595Z,2.58
2022-09-15T14:06:51.678Z,2.63
2022-09-15T14:11:57.842Z,2.83
2022-09-15T14:16:59.491Z,2.30
2022-09-15T14:22:20.119Z,2.45
2022-09-15T14:27:27.687Z,2.22
2022-09-15T14:32:34.308Z,2.42
2022-09-15T14:37:35.979Z,2.08
2022-09-15T14:42:41.310Z,2.42
2022-09-15T14:47:43.414Z,2.40
2022-09-15T14:52:58.232Z,1.70
2022-09-15T14:58:13.361Z,2.20
2022-09-15T15:03:33.149Z,2.65
2022-09-15T15:08:44.516Z,2.45
2022-09-15T15:13:50.462Z,2.67
2022-09-15T15:18:53.244Z,2.78
2022-09-15T15:23:55.333Z,2.30
2022-09-15T15:28:56.960Z,2.28
2022-09-15T15:34:05.151Z,2.15
2022-09-15T15:39:08.075Z,2.13
2022-09-15T15:44:15.327Z,2.10
2022-09-15T15:49:18.015Z,1.98
2022-09-15T15:54:19.626Z,2.10
2022-09-15T15:59:21.581Z,2.17
2022-09-15T16:04:23.064Z,1.92
2022-09-15T16:09:24.596Z,1.92
2022-09-15T16:14:26.139Z,2.30
2022-09-15T16:19:27.659Z,1.90
2022-09-15T16:24:29.173Z,2.33
2022-09-15T16:29:36.172Z,1.95
2022-09-15T16:34:37.875Z,2.17
2022-09-15T16:39:39.370Z,2.20
2022-09-15T16:44:40.866Z,2.30
2022-09-15T16:49:42.667Z,2.20
2022-09-15T16:54:44.667Z,2.17
2022-09-15T16:59:46.162Z,2.33
2022-09-15T17:04:47.651Z,2.35
2022-09-15T17:09:51.231Z,2.33
2022-09-15T17:14:52.739Z,2.33
2022-09-15T17:19:54.221Z,2.40
2022-09-15T17:24:55.698Z,2.90
2022-09-15T17:29:57.412Z,2.10
2022-09-15T17:34:59.958Z,2.60
2022-09-15T17:40:02.639Z,2.78
2022-09-15T17:45:19.179Z,2.53
2022-09-15T17:50:22.692Z,2.67
2022-09-15T17:55:32.663Z,2.90
2022-09-15T18:05:37.688Z,2.45
2022-09-15T18:10:39.316Z,2.63
2022-09-15T18:15:41.399Z,3.20
2022-09-15T18:20:43.675Z,2.70
2022-09-15T18:25:47.007Z,3.03
2022-09-15T18:30:50.244Z,3.08
2022-09-15T18:35:54.783Z,3.25
2022-09-15T18:40:57.165Z,3.03
2022-09-15T18:46:00.077Z,3.70
2022-09-15T18:51:01.779Z,3.55
2022-09-15T18:56:14.339Z,3.63
2022-09-15T19:01:17.880Z,3.88
2022-09-15T19:06:19.491Z,3.92
2022-09-15T19:11:21.065Z,3.90
2022-09-15T19:16:34.610Z,4.10
2022-09-15T19:21:47.107Z,5.32
2022-09-15T19:26:48.807Z,4.97
2022-09-15T19:31:50.398Z,4.30
2022-09-15T19:36:51.940Z,4.68
2022-09-15T19:41:53.514Z,4.90
2022-09-15T19:46:55.031Z,5.50
2022-09-15T19:51:56.636Z,5.13
2022-09-15T19:56:58.215Z,5.95
2022-09-15T20:02:00.793Z,5.75
2022-09-15T20:07:02.382Z,5.93
2022-09-15T20:12:04.087Z,6.32
2022-09-15T20:17:05.925Z,6.25
2022-09-15T20:22:07.511Z,6.40
2022-09-15T20:27:09.142Z,6.90
2022-09-15T20:32:10.721Z,6.63
2022-09-15T20:37:12.291Z,7.07
2022-09-15T20:42:13.791Z,6.90
2022-09-15T20:47:15.615Z,7.00
2022-09-15T20:52:17.102Z,7.47
2022-09-15T20:57:18.591Z,6.90
2022-09-15T21:02:20.180Z,8.18
2022-09-15T21:07:23.822Z,8.00
2022-09-15T21:12:25.455Z,6.57
2022-09-15T21:17:28.927Z,6.85
2022-09-15T21:22:30.414Z,7.95
2022-09-15T21:27:31.956Z,8.18
2022-09-15T21:32:33.751Z,8.48
2022-09-15T21:37:35.401Z,8.68
2022-09-15T21:42:36.910Z,7.55
2022-09-15T21:47:38.405Z,8.60
2022-09-15T21:52:39.926Z,7.63
2022-09-15T21:57:41.451Z,8.68
2022-09-15T22:02:42.977Z,7.90
2022-09-15T22:07:44.523Z,8.25
2022-09-15T22:12:48.216Z,8.57
2022-09-15T22:17:49.936Z,7.72
2022-09-15T22:22:51.678Z,8.02
2022-09-15T22:27:53.174Z,7.60
2022-09-15T22:32:54.660Z,8.05
2022-09-15T22:37:56.215Z,6.72
2022-09-15T22:42:57.786Z,7.82
2022-09-15T22:47:59.290Z,8.25
2022-09-15T22:53:00.841Z,7.82
2022-09-15T22:58:02.338Z,8.15
2022-09-15T23:03:04.168Z,7.85
2022-09-15T23:08:05.669Z,7.60
2022-09-15T23:13:07.180Z,7.00
2022-09-15T23:18:08.735Z,7.38
2022-09-15T23:23:10.525Z,8.05
2022-09-15T23:28:12.023Z,7.40
2022-09-15T23:33:13.545Z,8.25
2022-09-15T23:38:15.667Z,9.00
2022-09-15T23:43:17.896Z,8.50
2022-09-15T23:48:20.017Z,8.82
2022-09-15T23:53:21.707Z,7.72
2022-09-15T23:58:23.227Z,7.32
